Bergville, Minnesota
Current Conditions -  °F | °C
As of 10:53 PM on Wednesday 22 Oct 2014 (Local Time) from KFOZ Reporting Station
Light Rain Light Rain  
Wind Chill: 54°   Ceiling: Unl
Heat Index: 54°   Visibility: 10mi
Dew Point: 41°   Wind: 10mph
Humidity: 62%   Direction: 180°S
Pressure: 29.94"   Gusts: NA
Location:  47.8312°N, 94.1459°W
Report Text: KFOZ 230353Z AUTO 18009KT 10SM -RA SCT075 SCT085 12/05 A2994 RMK AO2 TSNO
Loading
Personal Weather Stations






























Interactive Weather Map
Tropical Storm Tracking
New forecast layout! Learn more

10-Day Weather Forecast

Advertisements
Track Severe Weather on mobile